createdAt,value
2023-03-18T00:00:19.009Z,7.70
2023-03-18T00:02:49.389Z,7.60
2023-03-18T00:05:18.250Z,7.60
2023-03-18T00:07:47.434Z,7.60
2023-03-18T00:10:16.906Z,7.50
2023-03-18T00:12:44.944Z,7.50
2023-03-18T00:15:16.055Z,7.50
2023-03-18T00:17:44.348Z,7.50
2023-03-18T00:20:13.884Z,7.40
2023-03-18T00:22:43.207Z,7.40
2023-03-18T00:25:13.372Z,7.40
2023-03-18T00:27:42.505Z,7.40
2023-03-18T00:30:12.332Z,7.40
2023-03-18T00:32:41.385Z,7.40
2023-03-18T00:35:12.100Z,7.30
2023-03-18T00:37:39.988Z,7.30
2023-03-18T00:40:10.533Z,7.30
2023-03-18T00:42:47.420Z,7.30
2023-03-18T00:45:17.283Z,7.20
2023-03-18T00:47:45.404Z,7.20
2023-03-18T00:50:13.656Z,7.20
2023-03-18T00:52:41.495Z,7.20
2023-03-18T00:55:10.480Z,7.20
2023-03-18T00:57:38.332Z,7.20
2023-03-18T01:00:09.677Z,7.20
2023-03-18T01:02:37.508Z,7.10
2023-03-18T01:05:06.099Z,7.10
2023-03-18T01:07:33.871Z,7.10
2023-03-18T01:10:02.128Z,7.10
2023-03-18T01:12:33.211Z,7.00
2023-03-18T01:15:04.696Z,7.00
2023-03-18T01:17:33.903Z,7.00
2023-03-18T01:20:02.557Z,7.00
2023-03-18T01:22:30.468Z,7.00
2023-03-18T01:24:58.665Z,7.00
2023-03-18T01:27:26.992Z,6.90
2023-03-18T01:29:54.805Z,6.90
2023-03-18T01:32:24.079Z,6.90
2023-03-18T01:34:53.206Z,6.90
2023-03-18T01:39:49.606Z,6.80
2023-03-18T01:42:18.071Z,6.80
2023-03-18T01:44:46.180Z,6.80
2023-03-18T01:47:15.144Z,6.80
2023-03-18T01:49:47.023Z,6.70
2023-03-18T01:52:19.155Z,6.70
2023-03-18T01:54:50.395Z,6.70
2023-03-18T01:57:19.154Z,6.80
2023-03-18T01:59:49.440Z,6.80
2023-03-18T02:02:20.662Z,6.70
2023-03-18T02:04:51.733Z,6.70
2023-03-18T02:07:23.156Z,6.60
2023-03-18T02:09:53.178Z,6.60
2023-03-18T02:12:24.901Z,6.60
2023-03-18T02:14:54.112Z,6.60
2023-03-18T02:17:26.060Z,6.60
2023-03-18T02:20:04.106Z,6.60
2023-03-18T02:22:35.229Z,6.50
2023-03-18T02:25:20.467Z,6.50
2023-03-18T02:27:54.130Z,6.50
2023-03-18T02:30:26.964Z,6.50
2023-03-18T02:32:57.768Z,6.40
2023-03-18T02:35:27.736Z,6.40
2023-03-18T02:37:55.552Z,6.40
2023-03-18T02:40:26.688Z,6.40
2023-03-18T02:42:57.179Z,6.40
2023-03-18T02:45:39.573Z,6.30
2023-03-18T02:48:09.366Z,6.30
2023-03-18T02:50:37.216Z,6.30
2023-03-18T02:53:05.935Z,6.30
2023-03-18T02:55:33.686Z,6.30
2023-03-18T02:58:02.851Z,6.30
2023-03-18T03:00:30.954Z,6.30
2023-03-18T03:02:59.095Z,6.20
2023-03-18T03:05:27.425Z,6.20
2023-03-18T03:07:55.274Z,6.20
2023-03-18T03:10:23.178Z,6.20
2023-03-18T03:12:51.416Z,6.20
2023-03-18T03:15:21.202Z,6.10
2023-03-18T03:17:49.441Z,6.20
2023-03-18T03:20:18.112Z,6.10
2023-03-18T03:22:46.338Z,6.10
2023-03-18T03:25:14.661Z,6.10
2023-03-18T03:27:43.597Z,6.10
2023-03-18T03:30:13.800Z,6.10
2023-03-18T03:32:43.181Z,6.10
2023-03-18T03:35:14.108Z,6.10
2023-03-18T03:37:42.304Z,6.00
2023-03-18T03:40:11.551Z,6.00
2023-03-18T03:42:40.248Z,6.00
2023-03-18T03:45:09.389Z,6.00
2023-03-18T03:47:37.415Z,6.00
2023-03-18T03:50:08.186Z,6.00
2023-03-18T03:52:37.199Z,6.00
2023-03-18T03:55:06.017Z,6.00
2023-03-18T03:57:34.020Z,6.00
2023-03-18T04:00:02.033Z,6.00
2023-03-18T04:02:29.861Z,6.00
2023-03-18T04:04:57.754Z,5.90
2023-03-18T04:07:27.122Z,5.90
2023-03-18T04:09:55.879Z,5.90
2023-03-18T04:12:23.804Z,5.90
2023-03-18T04:14:51.931Z,5.90
2023-03-18T04:17:19.813Z,5.90
2023-03-18T04:19:47.712Z,5.80
2023-03-18T04:22:15.793Z,5.80
2023-03-18T04:24:45.717Z,5.80
2023-03-18T04:27:13.787Z,5.80
2023-03-18T04:29:41.815Z,5.80
2023-03-18T04:32:09.678Z,5.70
2023-03-18T04:34:38.458Z,5.70
2023-03-18T04:37:06.331Z,5.70
2023-03-18T04:39:34.155Z,5.80
2023-03-18T04:42:03.321Z,5.70
2023-03-18T04:44:31.127Z,5.70
2023-03-18T04:46:59.701Z,5.70
2023-03-18T04:49:27.560Z,5.60
2023-03-18T04:51:58.147Z,5.60
2023-03-18T04:54:25.984Z,5.50
2023-03-18T04:56:54.270Z,5.50
2023-03-18T04:59:23.540Z,5.50
2023-03-18T05:01:51.372Z,5.60
2023-03-18T05:04:19.233Z,5.60
2023-03-18T05:06:47.225Z,5.60
2023-03-18T05:09:15.131Z,5.60
2023-03-18T05:11:42.988Z,5.60
2023-03-18T05:14:10.810Z,5.60
2023-03-18T05:16:40.105Z,5.60
2023-03-18T05:19:08.481Z,5.70
2023-03-18T05:21:37.478Z,5.70
2023-03-18T05:24:05.502Z,5.70
2023-03-18T05:26:33.339Z,5.70
2023-03-18T05:29:01.126Z,5.70
2023-03-18T05:31:29.516Z,5.60
2023-03-18T05:33:58.788Z,5.60
2023-03-18T05:36:26.568Z,5.60
2023-03-18T05:38:54.404Z,5.70
2023-03-18T05:41:22.231Z,5.60
2023-03-18T05:43:50.048Z,5.60
2023-03-18T05:46:18.051Z,5.40
2023-03-18T05:48:45.895Z,5.40
2023-03-18T05:51:15.235Z,5.50
2023-03-18T05:53:43.009Z,5.40
2023-03-18T05:56:12.157Z,5.30
2023-03-18T05:58:40.200Z,5.40
2023-03-18T06:01:08.241Z,5.50
2023-03-18T06:03:36.151Z,5.50
2023-03-18T06:06:06.393Z,5.50
2023-03-18T06:08:35.937Z,5.50
2023-03-18T06:11:03.905Z,5.50
2023-03-18T06:13:31.886Z,5.60
2023-03-18T06:16:01.356Z,5.60
2023-03-18T06:18:29.108Z,5.60
2023-03-18T06:20:57.225Z,5.60
2023-03-18T06:23:25.628Z,5.70
2023-03-18T06:25:54.856Z,5.70
2023-03-18T06:28:22.700Z,5.70
2023-03-18T06:30:50.571Z,5.80
2023-03-18T06:33:18.442Z,5.90
2023-03-18T06:35:48.576Z,5.90
2023-03-18T06:38:16.722Z,5.90
2023-03-18T06:40:44.767Z,5.90
2023-03-18T06:43:14.138Z,5.90
2023-03-18T06:45:42.195Z,6.00
2023-03-18T06:48:10.557Z,6.00
2023-03-18T06:50:39.484Z,6.10
2023-03-18T06:53:07.839Z,6.20
2023-03-18T06:55:35.892Z,6.30
2023-03-18T06:58:03.832Z,6.40
2023-03-18T07:00:33.944Z,6.50
2023-03-18T07:03:04.821Z,6.50
2023-03-18T07:05:33.072Z,6.60
2023-03-18T07:08:01.542Z,6.70
2023-03-18T07:10:31.970Z,6.60
2023-03-18T07:13:00.124Z,6.80
2023-03-18T07:15:28.674Z,7.00
2023-03-18T07:18:00.343Z,7.20
2023-03-18T07:20:28.710Z,7.20
2023-03-18T07:22:56.646Z,7.50
2023-03-18T07:25:24.526Z,7.80
2023-03-18T07:27:52.359Z,7.90
2023-03-18T07:30:21.173Z,7.70
2023-03-18T07:32:49.580Z,7.60
2023-03-18T07:35:19.486Z,7.60
2023-03-18T07:37:47.279Z,7.50
2023-03-18T07:40:16.515Z,7.50
2023-03-18T07:42:44.323Z,7.60
2023-03-18T07:45:12.503Z,7.70
2023-03-18T07:47:40.277Z,7.80
2023-03-18T07:50:09.510Z,7.80
2023-03-18T07:52:38.664Z,8.00
2023-03-18T07:55:09.030Z,8.30
2023-03-18T07:57:36.938Z,8.30
2023-03-18T08:00:06.061Z,8.30
2023-03-18T08:02:33.949Z,8.30
2023-03-18T08:05:02.109Z,8.60
2023-03-18T08:07:30.593Z,8.70
2023-03-18T08:10:00.361Z,8.70
2023-03-18T08:12:35.553Z,9.00
2023-03-18T08:15:13.138Z,9.20
2023-03-18T08:17:41.421Z,9.50
2023-03-18T08:20:10.647Z,9.20
2023-03-18T08:22:38.508Z,9.10
2023-03-18T08:25:08.634Z,9.20
2023-03-18T08:27:36.412Z,9.50
2023-03-18T08:30:04.597Z,9.90
2023-03-18T08:32:32.494Z,10.10
2023-03-18T08:35:01.360Z,10.10
2023-03-18T08:37:29.428Z,9.90
2023-03-18T08:39:57.241Z,10.20
2023-03-18T08:42:29.057Z,10.60
2023-03-18T08:44:57.717Z,11.00
2023-03-18T08:47:25.763Z,11.10
2023-03-18T08:49:53.892Z,11.00
2023-03-18T08:52:22.310Z,11.10
2023-03-18T08:54:50.462Z,11.00
2023-03-18T08:57:18.401Z,10.90
2023-03-18T08:59:50.493Z,11.20
2023-03-18T09:02:18.524Z,11.10
2023-03-18T09:04:47.619Z,11.30
2023-03-18T09:07:17.944Z,11.80
2023-03-18T09:09:46.813Z,11.70
2023-03-18T09:12:14.982Z,11.90
2023-03-18T09:14:43.876Z,12.20
2023-03-18T09:17:13.203Z,12.20
2023-03-18T09:19:41.129Z,12.00
2023-03-18T09:22:09.375Z,12.00
2023-03-18T09:24:37.220Z,11.80
2023-03-18T09:27:05.218Z,11.80
2023-03-18T09:29:33.297Z,12.40
2023-03-18T09:32:01.368Z,13.00
2023-03-18T09:34:30.515Z,12.60
2023-03-18T09:36:59.139Z,12.70
2023-03-18T09:39:27.139Z,12.50
2023-03-18T09:42:08.709Z,12.50
2023-03-18T09:44:37.648Z,12.20
2023-03-18T09:47:24.528Z,12.40
2023-03-18T09:50:16.484Z,13.10
2023-03-18T09:52:49.143Z,13.10
2023-03-18T09:55:24.873Z,13.50
2023-03-18T09:57:58.503Z,14.00
2023-03-18T10:00:30.470Z,13.90
2023-03-18T10:03:05.846Z,14.10
2023-03-18T10:05:41.225Z,13.90
2023-03-18T10:08:18.036Z,14.20
2023-03-18T10:10:47.654Z,14.40
2023-03-18T10:13:20.257Z,14.20
2023-03-18T10:15:53.978Z,14.40
2023-03-18T10:18:27.807Z,14.10
2023-03-18T10:21:09.138Z,14.10
2023-03-18T10:23:49.520Z,14.20
2023-03-18T10:26:22.118Z,14.40
2023-03-18T10:29:01.424Z,14.80
2023-03-18T10:31:39.591Z,15.00
2023-03-18T10:34:11.414Z,14.60
2023-03-18T10:36:50.899Z,14.50
2023-03-18T10:39:21.582Z,14.40
2023-03-18T10:41:50.920Z,14.60
2023-03-18T10:44:23.576Z,15.00
2023-03-18T10:47:01.704Z,14.70
2023-03-18T10:49:33.081Z,14.50
2023-03-18T10:52:08.650Z,14.90
2023-03-18T10:54:41.355Z,14.60
2023-03-18T10:57:14.042Z,14.90
2023-03-18T10:59:44.546Z,14.50
2023-03-18T11:02:19.473Z,14.90
2023-03-18T11:04:50.752Z,14.60
2023-03-18T11:07:25.776Z,14.90
2023-03-18T11:09:54.192Z,14.80
2023-03-18T11:12:26.951Z,15.00
2023-03-18T11:14:54.762Z,15.10
2023-03-18T11:17:27.283Z,15.10
2023-03-18T11:20:05.319Z,14.90
2023-03-18T11:22:36.571Z,14.90
2023-03-18T11:25:13.757Z,15.20
2023-03-18T11:27:43.768Z,15.10
2023-03-18T11:30:21.423Z,15.10
2023-03-18T11:32:59.364Z,15.20
2023-03-18T11:35:45.998Z,15.30
2023-03-18T11:38:20.472Z,15.10
2023-03-18T11:40:48.713Z,15.50
2023-03-18T11:43:20.580Z,15.40
2023-03-18T11:45:52.212Z,15.40
2023-03-18T11:48:30.220Z,15.30
2023-03-18T11:51:39.542Z,15.40
2023-03-18T11:54:24.474Z,15.30
2023-03-18T11:56:57.200Z,15.20
2023-03-18T11:59:41.800Z,15.30
2023-03-18T12:02:29.371Z,15.60
2023-03-18T12:05:13.785Z,15.90
2023-03-18T12:07:52.995Z,17.20
2023-03-18T12:10:27.003Z,17.00
2023-03-18T12:13:13.345Z,16.90
2023-03-18T12:15:48.477Z,16.30
2023-03-18T12:18:35.647Z,16.70
2023-03-18T12:21:11.023Z,16.40
2023-03-18T12:23:53.709Z,16.50
2023-03-18T12:26:32.231Z,17.30
2023-03-18T12:29:28.840Z,17.20
2023-03-18T12:32:08.252Z,16.40
2023-03-18T12:34:50.288Z,16.40
2023-03-18T12:37:31.987Z,16.20
2023-03-18T12:40:18.388Z,16.50
2023-03-18T12:43:05.050Z,16.80
2023-03-18T12:45:37.038Z,16.90
2023-03-18T12:48:10.891Z,16.70
2023-03-18T12:50:41.882Z,16.40
2023-03-18T12:53:16.503Z,16.90
2023-03-18T12:55:47.963Z,17.20
2023-03-18T12:58:21.848Z,16.80
2023-03-18T13:00:57.101Z,16.70
2023-03-18T13:03:32.707Z,16.50
2023-03-18T13:06:05.117Z,16.40
2023-03-18T13:08:47.439Z,16.50
2023-03-18T13:11:36.067Z,16.50
2023-03-18T13:14:14.583Z,16.70
2023-03-18T13:16:42.987Z,17.70
2023-03-18T13:19:12.162Z,17.30
2023-03-18T13:21:44.216Z,17.00
2023-03-18T13:24:38.740Z,17.10
2023-03-18T13:27:40.142Z,17.30
2023-03-18T13:30:19.403Z,16.80
2023-03-18T13:33:33.227Z,16.80
2023-03-18T13:36:22.311Z,16.60
2023-03-18T13:39:05.440Z,16.70
2023-03-18T13:42:18.153Z,16.90
2023-03-18T13:44:51.008Z,16.80
2023-03-18T13:47:23.392Z,16.90
2023-03-18T13:50:01.993Z,16.90
2023-03-18T13:52:36.213Z,17.00
2023-03-18T13:55:08.081Z,16.80
2023-03-18T13:57:48.948Z,16.80
2023-03-18T14:00:32.943Z,16.80
2023-03-18T14:03:17.271Z,16.60
2023-03-18T14:05:46.823Z,16.40
2023-03-18T14:08:44.894Z,17.00
2023-03-18T14:11:38.691Z,17.00
2023-03-18T14:14:07.050Z,17.00
2023-03-18T14:16:52.801Z,17.00
2023-03-18T14:19:28.404Z,16.80
2023-03-18T14:22:07.833Z,17.10
2023-03-18T14:24:36.223Z,17.00
2023-03-18T14:27:15.677Z,17.50
2023-03-18T14:29:46.573Z,17.10
2023-03-18T14:32:31.989Z,17.00
2023-03-18T14:35:05.149Z,17.00
2023-03-18T14:37:34.289Z,17.10
2023-03-18T14:40:07.108Z,17.10
2023-03-18T14:42:45.852Z,17.00
2023-03-18T14:45:20.472Z,16.70
2023-03-18T14:47:52.210Z,16.80
2023-03-18T14:50:30.266Z,16.70
2023-03-18T14:53:04.870Z,16.60
2023-03-18T14:55:35.443Z,16.70
2023-03-18T14:58:03.898Z,16.90
2023-03-18T15:00:35.586Z,16.70
2023-03-18T15:03:07.755Z,16.80
2023-03-18T15:05:38.973Z,16.70
2023-03-18T15:08:14.547Z,16.40
2023-03-18T15:10:43.461Z,16.40
2023-03-18T15:13:14.431Z,16.30
2023-03-18T15:15:43.237Z,16.40
2023-03-18T15:18:20.565Z,16.30
2023-03-18T15:20:52.557Z,16.30
2023-03-18T15:23:27.857Z,16.40
2023-03-18T15:25:56.157Z,16.30
2023-03-18T15:28:28.288Z,16.50
2023-03-18T15:30:58.409Z,16.50
2023-03-18T15:33:31.262Z,16.50
2023-03-18T15:36:06.068Z,16.40
2023-03-18T15:38:34.702Z,16.40
2023-03-18T15:41:04.555Z,16.20
2023-03-18T15:43:36.314Z,16.20
2023-03-18T15:46:08.643Z,16.30
2023-03-18T15:48:40.135Z,16.30
2023-03-18T15:51:24.757Z,16.20
2023-03-18T15:53:54.622Z,16.10
2023-03-18T15:56:27.155Z,16.00
2023-03-18T15:59:00.610Z,15.80
2023-03-18T16:01:28.512Z,15.70
2023-03-18T16:03:56.378Z,15.60
2023-03-18T16:06:26.674Z,15.70
2023-03-18T16:08:54.456Z,15.70
2023-03-18T16:11:24.163Z,15.60
2023-03-18T16:13:53.022Z,15.40
2023-03-18T16:16:27.404Z,15.60
2023-03-18T16:18:57.124Z,15.50
2023-03-18T16:21:26.964Z,15.40
2023-03-18T16:23:54.838Z,15.40
2023-03-18T16:26:23.732Z,15.40
2023-03-18T16:28:51.502Z,15.40
2023-03-18T16:31:19.292Z,15.30
2023-03-18T16:33:49.874Z,15.30
2023-03-18T16:36:26.748Z,15.20
2023-03-18T16:38:55.998Z,15.30
2023-03-18T16:41:23.788Z,15.30
2023-03-18T16:43:52.531Z,15.30
2023-03-18T16:46:20.432Z,15.40
2023-03-18T16:48:52.181Z,15.30
2023-03-18T16:51:19.980Z,15.10
2023-03-18T16:53:48.297Z,15.00
2023-03-18T16:56:21.764Z,15.00
2023-03-18T16:58:50.501Z,14.80
2023-03-18T17:01:19.373Z,14.70
2023-03-18T17:03:47.937Z,14.80
2023-03-18T17:06:15.846Z,14.90
2023-03-18T17:08:43.632Z,15.00
2023-03-18T17:11:17.889Z,15.00
2023-03-18T17:13:48.594Z,15.00
2023-03-18T17:16:18.889Z,15.10
2023-03-18T17:18:46.753Z,15.00
2023-03-18T17:21:15.344Z,14.90
2023-03-18T17:23:43.183Z,14.90
2023-03-18T17:26:15.001Z,14.90
2023-03-18T17:28:45.072Z,14.90
2023-03-18T17:31:14.991Z,14.70
2023-03-18T17:33:42.993Z,14.70
2023-03-18T17:36:10.808Z,14.70
2023-03-18T17:38:38.613Z,14.70
2023-03-18T17:41:13.390Z,14.70
2023-03-18T17:43:41.903Z,14.60
2023-03-18T17:46:09.848Z,14.60
2023-03-18T17:48:41.134Z,14.50
2023-03-18T17:51:13.999Z,14.50
2023-03-18T17:53:44.700Z,14.50
2023-03-18T17:56:14.956Z,14.50
2023-03-18T17:58:45.452Z,14.40
2023-03-18T18:01:15.350Z,14.40
2023-03-18T18:03:44.589Z,14.40
2023-03-18T18:06:18.344Z,14.30
2023-03-18T18:08:46.857Z,14.30
2023-03-18T18:11:19.937Z,14.20
2023-03-18T18:13:48.368Z,14.20
2023-03-18T18:16:16.580Z,14.20
2023-03-18T18:18:48.325Z,14.10
2023-03-18T18:21:20.101Z,14.10
2023-03-18T18:23:49.889Z,14.00
2023-03-18T18:26:21.197Z,14.00
2023-03-18T18:28:50.932Z,14.00
2023-03-18T18:31:20.689Z,13.90
2023-03-18T18:33:50.880Z,13.90
2023-03-18T18:36:19.332Z,13.90
2023-03-18T18:38:47.189Z,13.80
2023-03-18T18:41:15.179Z,13.80
2023-03-18T18:43:43.029Z,13.70
2023-03-18T18:46:14.528Z,13.70
2023-03-18T18:48:43.113Z,13.60
2023-03-18T18:51:17.055Z,13.60
2023-03-18T18:53:46.277Z,13.50
2023-03-18T18:56:18.393Z,13.50
2023-03-18T18:58:46.689Z,13.50
2023-03-18T19:01:16.006Z,13.50
2023-03-18T19:03:44.047Z,13.40
2023-03-18T19:06:21.790Z,13.40
2023-03-18T19:08:49.653Z,13.30
2023-03-18T19:11:18.735Z,13.30
2023-03-18T19:13:47.572Z,13.30
2023-03-18T19:16:24.256Z,13.00
2023-03-18T19:18:52.065Z,12.70
2023-03-18T19:21:21.895Z,12.80
2023-03-18T19:23:49.784Z,12.90
2023-03-18T19:26:18.619Z,12.90
2023-03-18T19:28:59.046Z,12.90
2023-03-18T19:31:30.511Z,12.90
2023-03-18T19:34:00.499Z,12.90
2023-03-18T19:36:31.584Z,12.90
2023-03-18T19:39:01.303Z,12.90
2023-03-18T19:41:29.874Z,12.90
2023-03-18T19:44:03.812Z,12.80
2023-03-18T19:46:38.694Z,12.80
2023-03-18T19:49:18.776Z,12.70
2023-03-18T19:51:49.639Z,12.70
2023-03-18T19:54:28.225Z,12.70
2023-03-18T19:56:57.054Z,12.60
2023-03-18T19:59:33.503Z,12.60
2023-03-18T20:02:12.475Z,12.60
2023-03-18T20:04:41.344Z,12.60
2023-03-18T20:07:10.591Z,12.50
2023-03-18T20:09:39.302Z,12.50
2023-03-18T20:12:10.626Z,12.40
2023-03-18T20:14:39.065Z,12.40
2023-03-18T20:17:29.094Z,12.40
2023-03-18T20:19:57.428Z,12.40
2023-03-18T20:22:28.386Z,12.40
2023-03-18T20:24:56.630Z,12.30
2023-03-18T20:27:24.576Z,12.30
2023-03-18T20:29:52.403Z,12.20
2023-03-18T20:32:20.231Z,12.20
2023-03-18T20:34:48.400Z,12.20
2023-03-18T20:37:23.283Z,12.20
2023-03-18T20:39:53.130Z,12.10
2023-03-18T20:42:21.045Z,12.10
2023-03-18T20:44:48.934Z,12.10
2023-03-18T20:47:16.697Z,12.10
2023-03-18T20:49:45.573Z,12.10
2023-03-18T20:52:24.153Z,12.00
2023-03-18T20:54:53.728Z,12.00
2023-03-18T20:57:21.600Z,12.00
2023-03-18T20:59:49.833Z,11.90
2023-03-18T21:02:32.595Z,11.80
2023-03-18T21:05:01.814Z,11.80
2023-03-18T21:07:30.022Z,11.80
2023-03-18T21:09:59.313Z,11.80
2023-03-18T21:12:27.218Z,11.80
2023-03-18T21:14:55.075Z,11.70
2023-03-18T21:17:24.649Z,11.80
2023-03-18T21:19:54.355Z,11.70
2023-03-18T21:22:25.396Z,11.60
2023-03-18T21:24:53.433Z,11.60
2023-03-18T21:27:24.256Z,11.60
2023-03-18T21:29:53.008Z,11.60
2023-03-18T21:32:25.434Z,11.50
2023-03-18T21:34:54.076Z,11.50
2023-03-18T21:37:23.876Z,11.50
2023-03-18T21:39:52.144Z,11.50
2023-03-18T21:42:23.798Z,11.50
2023-03-18T21:44:51.902Z,11.50
2023-03-18T21:47:21.043Z,11.40
2023-03-18T21:49:49.642Z,11.40
2023-03-18T21:52:20.403Z,11.40
2023-03-18T21:54:48.228Z,11.30
2023-03-18T21:57:18.299Z,11.20
2023-03-18T21:59:47.589Z,11.20
2023-03-18T22:02:27.417Z,11.20
2023-03-18T22:04:56.793Z,11.20
2023-03-18T22:07:24.705Z,11.10
2023-03-18T22:09:52.574Z,11.10
2023-03-18T22:12:23.915Z,11.10
2023-03-18T22:14:53.851Z,11.00
2023-03-18T22:17:24.360Z,11.00
2023-03-18T22:19:52.947Z,11.00
2023-03-18T22:22:22.939Z,11.00
2023-03-18T22:24:51.253Z,10.90
2023-03-18T22:27:20.858Z,10.90
2023-03-18T22:29:49.560Z,10.90
2023-03-18T22:32:36.142Z,10.80
2023-03-18T22:35:05.028Z,10.80
2023-03-18T22:37:33.036Z,10.80
2023-03-18T22:40:01.393Z,10.80
2023-03-18T22:42:29.418Z,10.80
2023-03-18T22:44:57.473Z,10.70
2023-03-18T22:47:27.196Z,10.70
2023-03-18T22:49:55.274Z,10.70
2023-03-18T22:52:26.125Z,10.60
2023-03-18T22:54:55.868Z,10.60
2023-03-18T22:57:26.234Z,10.60
2023-03-18T23:02:36.885Z,10.50
2023-03-18T23:05:04.986Z,10.50
2023-03-18T23:07:34.313Z,10.50
2023-03-18T23:10:04.577Z,10.40
2023-03-18T23:12:34.507Z,10.40
2023-03-18T23:15:03.832Z,10.40
2023-03-18T23:17:32.070Z,10.40
2023-03-18T23:20:01.244Z,10.40
2023-03-18T23:22:32.039Z,10.30
2023-03-18T23:24:59.949Z,10.30
2023-03-18T23:27:29.238Z,10.30
2023-03-18T23:29:57.441Z,10.20
2023-03-18T23:32:25.459Z,10.20
2023-03-18T23:34:53.585Z,10.20
2023-03-18T23:37:24.038Z,10.20
2023-03-18T23:39:51.809Z,10.20
2023-03-18T23:42:21.618Z,10.20
2023-03-18T23:44:49.601Z,10.10
2023-03-18T23:47:17.628Z,10.10
2023-03-18T23:49:45.441Z,10.10
2023-03-18T23:52:14.850Z,10.20
2023-03-18T23:54:44.177Z,10.10
2023-03-18T23:57:12.352Z,10.00
2023-03-18T23:59:40.495Z,10.00
